Create Custom Reports and Graphics: Custom Report

North/Central Map

Map

15 Minute Data

South County Map

Map

15 Minute Data

Northern Sonoma County Latest

25 Stations

15 Minute Data | America/Los_Angeles
as of 5/7/26 6:08 AM PDT
Station Date Time Temp (°F) RH (%) Dew Pt (°F) Wind Spd (mph) Wind Dir (°) Wind Gust (mph) Latest Rain (In) Daily Rain (In) Daily Max Temp (°F) Daily Min Temp (°F)
Bavarian Lion EFW 5/7/26 0600 51.2   3.0 - - - - - 0.00 0.00 52.3   3.1 50.0   4.2
Rockpile Lower (Cooley) 5/7/26 0545 48.1   4.5 100   9 48.1   2.1 1.4   1.4 NNW | 343 4.6   4.6 0.00 0.00 53.4   0.0 48.1   4.3
Rockpile Upper (Cooley) 5/7/26 0600 45.4   3.3 100   0 45.4   3.3 5.3   0.7 NW | 323 7.2   0.2 0.00 0.00 54.3   4.1 44.8   3.8
Lower Dry Creek Valley 5/7/26 0600 52.2   2.8 100   11 52.2   0.3 0.2   0.2 NW | 326 2.5   2.5 0.00 0.00 53.2   2.9 51.8   3.2
Geyserville-South (Nervo Station) 5/7/26 0600 51.8   2.7 - - 0.2   0.2 S | 190 2.4   2.4 0.00 0.00 53.0   2.4 51.4   2.7
Franz Valley (Stornetta) 5/7/26 0600 50.9   2.5 97   5 50.0   1.1 0.2   1.4 WSW | 241 1.2   2.4 0.00 0.00 52.0   2.7 48.5   4.9
Geyserville (Ranch 3) 5/7/26 0600 53.0   2.6 100   12 52.9   0.9 2.5   0.6 SW | 231 4.4   0.6 0.00 0.00 54.0   2.7 52.9   2.4
Geyserville-North (Hoffman) 5/7/26 0600 53.0   2.8 95   7 51.6   0.7 1.0   0.8 W | 260 2.5   0.8 0.00 0.00 54.4   2.6 52.9   2.8
Knights Valley (Bavarian Lion) 5/7/26 0600 50.7   2.9 97   7 49.9   0.9 1.4   0.4 WNW | 291 3.3   1.2 0.00 0.00 51.6   3.4 49.1   4.4
HWY 128/Chalk Hill Rd (Landslide) 5/7/26 0600 51.9   3.2 96   7 50.9   1.1 1.3   1.3 SSW | 206 2.8   2.8 0.00 0.00 53.0   2.9 51.8   3.3
Newman Knights Valley 5/7/26 0600 52.2   2.4 88   4 48.6   1.1 2.2   0.6 SSW | 205 3.2   0.5 0.00 0.00 52.5   3.4 51.8   2.7
Jimtown-North (Piccolo Ranch 15) 5/7/26 0600 52.4   2.6 100   13 52.4   1.2 1.7   1.4 SSW | 207 3.5   2.2 0.00 0.00 53.4   2.9 52.1   2.6
Peterson (Ranch 09) 5/7/26 0600 51.7   2.5 94   6 50.0   0.6 1.5   0.3 SW | 216 3.0   0.9 0.00 0.00 53.2   2.0 51.6   2.5
Cloverdale-SE (Ranch 38) 5/7/26 0600 51.2   2.7 98   5 50.8   1.3 3.0   1.0 NW | 313 5.7   2.6 0.00 0.00 51.9   3.0 50.9   2.9
Geyserville-East (Ranch 40) 5/7/26 0600 50.7   1.6 99   3 50.6   0.9 1.5   0.7 W | 275 3.8   0.1 0.00 0.00 51.3   2.6 50.4   1.8
N Chalk Hill Rd (Ranch 63) 5/7/26 0600 49.9   4.0 98   10 49.2   1.1 2.5   2.2 SW | 229 4.5   3.5 0.00 0.00 51.3   3.5 49.7   4.1
Cloverdale-East (Ranch 83) 5/7/26 0600 52.6   2.9 - - 2.0   1.0 WNW | 291 4.5   2.2 0.00 0.00 53.6   3.3 52.4   3.0
Crazy Creek Ranch 5/7/26 0600 52.4   3.0 98   6 51.8   1.2 1.4   0.9 S | 177 3.0   1.6 0.00 0.00 53.8   2.6 52.4   2.8
Lytton East (Hill 5) 5/7/26 0600 51.1   2.8 97   7 50.4   0.8 1.7   1.2 SSW | 211 3.0   1.1 0.00 0.00 52.2   2.6 51.1   2.8
Lytton East (Shop Hill Bottom) 5/7/26 0600 51.3   2.9 99   10 51.0   0.1 1.3   1.2 SSW | 200 2.5   1.6 0.00 0.00 52.4   2.7 51.2   2.9
Lytton West Hill (23PS) 5/7/26 0600 51.6   3.1 100   11 51.6   0.0 1.5   0.8 WNW | 292 2.8   0.8 0.00 0.00 52.7   2.5 51.4   3.2
Lytton West Lower (Lew 6) 5/7/26 0600 51.5   2.9 100   11 51.4   0.2 0.8   0.7 WSW | 241 2.9   1.1 0.00 0.00 52.7   2.7 51.4   2.9
Whitton Ranch (201e) 5/7/26 0600 52.1   2.5 97   7 51.3   0.5 0.3   0.4 SSE | 155 1.0   0.7 0.00 0.00 53.4   2.2 51.9   2.7
Upper Dry Creek Valley 5/7/26 0600 52.4   2.7 95   7 51.1   0.5 0.4   1.1 SSE | 151 1.2   1.8 0.00 0.00 53.0   3.2 51.9   3.2
Big River 5/7/26 0600 51.6   2.8 99   6 51.4   1.0 0.8   0.5 WNW | 282 1.8   0.4 0.00 0.00 53.0   2.1 51.5   2.9
Max     53.0 100 52.9 5.3 - 7.2 0.00 0.00 54.4 52.9
Avg     51.3 98 50.6 1.5 - 3.2 0.00 - - -
Min     45.4 88 45.4 0.2 - 1.0 0.00 0.00 51.3 44.8

Central Sonoma County Latest

37 Stations

15 Minute Data | America/Los_Angeles
as of 5/7/26 6:08 AM PDT
Station Date Time Temp (°F) RH (%) Dew Pt (°F) Wind Spd (mph) Wind Dir (°) Wind Gust (mph) Latest Rain (In) Daily Rain (In) Daily Max Temp (°F) Daily Min Temp (°F)
Windsor-NW (Ranch 8) 5/7/26 0600 52.4   2.2 84   2 47.8   1.6 0.8   0.8 WSW | 256 2.3   2.3 0.00 0.00 53.0   2.0 52.2   2.1
Windsor-East (Ranch 16) 5/7/26 0600 51.8   2.9 95   6 50.3   1.2 1.1   1.0 ENE | 68 2.4   1.4 0.00 0.00 53.3   1.9 51.6   3.0
Mark West-North (Ranch 14) 5/7/26 0600 52.1   2.4 95   6 50.7   0.6 2.1   1.9 NW | 311 3.5   2.1 0.00 0.00 53.3   1.7 52.0   2.3
Windsor-SE (Silk Rd) 5/7/26 0600 52.6   2.4 96   6 51.6   0.8 0.5   0.4 SSE | 153 1.9   0.7 0.00 0.00 53.0   2.3 52.3   2.4
Fulton-NW (Ranch 5) 5/7/26 0600 52.2   2.5 95   4 50.8   1.4 2.0   2.0 ESE | 120 4.3   4.1 0.00 0.00 53.4   1.5 52.0   2.3
Bisordi (Fulton) 5/7/26 0600 52.3   2.4 94   3 50.5   1.4 1.5   1.2 SSE | 168 3.8   2.8 0.00 0.00 53.5   1.7 52.3   2.2
Windsor-South (Laughlin Rd) 5/4/26 1515 70.3 46 48.5 - - - 0.00 - 71.4 51.0
Fulton-SE (Barnes Rd) 5/7/26 0600 52.5   2.3 93   4 50.7   1.1 2.1   2.0 E | 99 3.9   3.1 0.00 0.00 53.8   1.5 52.3   2.6
Fulton-SW (Ranch 21) 5/7/26 0600 51.4   2.7 82   8 32.8   18.7 1.2   0.8 SE | 142 3.5   2.1 0.00 0.00 52.4   2.1 51.2   2.8
NW Santa Rosa (Piner Road) 5/7/26 0600 51.8   2.7 100   0 51.8   2.7 2.3   2.2 E | 93 3.6   2.7 0.00 0.00 52.6   2.0 51.6   2.7
River Rd South (Denner Ranch) 5/7/26 0600 51.6   2.8 0   0 -66.8   1.9 1.4   1.3 N | 10 3.9   3.3 - - 52.5   2.2 51.1   2.8
West Santa Rosa (LOV Vineyard) 5/7/26 0600 51.7   2.8 96   5 50.6   1.2 0.1   0.0 SSE | 166 0.8   0.1 0.00 0.00 52.7   2.1 51.5   2.9
Guerneville Rd (Prokopakis) 5/7/26 0600 51.9   3.0 97   6 51.0   1.4 - - - 0.00 0.00 53.2   2.2 51.8   2.9
SunnyView Vineyard (SCWC) 5/7/26 0600 51.2   2.9 95   6 50.0   1.3 1.0   0.9 ENE | 70 4.8   3.6 0.00 0.00 52.4   2.0 51.1   2.8
Guerneville Rd West (Balletto) 5/7/26 0600 51.9   2.9 98   4 51.4   1.6 0.4   0.4 ENE | 78 3.3   1.8 0.00 0.00 53.0   2.1 51.7   3.0
Sanchietti Ranch 5/7/26 0600 52.5   2.8 96   3 51.3   1.8 2.2   1.4 ESE | 102 4.3   2.7 0.00 0.00 54.0   1.9 52.5   2.7
Occidental Rd (Sebastopol) 5/7/26 0600 51.5   2.7 100   0 51.5   2.7 0.3   0.4 E | 101 1.8   0.0 0.00 0.00 52.3   2.3 51.3   2.5
Harper's Rest (Windsor-West) 5/7/26 0600 51.0   2.6 96   5 49.7   1.2 0.8   0.8 WNW | 286 2.2   1.5 0.00 0.00 51.4   2.5 50.7   2.7
Lower Westside Rd (Ranch 12) 5/7/26 0600 52.1   2.8 96   6 50.9   1.0 0.6   0.6 WSW | 247 2.8   2.8 0.00 0.00 52.8   2.6 51.6   3.0
Guerneville (Laughlin Rd) 5/7/26 0600 51.6   2.6 95   2 50.1   1.9 1.4   1.4 SSE | 166 2.8   2.8 0.00 0.00 53.3   1.0 51.5   2.4
Korbel (Winery) 5/7/26 0600 52.1   2.8 94   2 50.4   2.2 0.0   0.0 N | 0 0.0   0.0 0.00 0.00 53.6   1.6 52.0   2.6
Forestville (Shone Farms) 5/7/26 0600 51.9   2.7 97   6 50.9   0.9 1.8   1.3 ENE | 72 5.2   3.4 0.00 0.00 53.3   3.7 50.0   2.4
Forestville-NE (Ranch 30) 5/7/26 0600 51.5   2.6 98   5 51.0   1.1 0.5   0.5 ESE | 102 1.5   1.0 0.00 0.00 51.8   2.7 50.9   3.0
Foggy Bend (Ranch 41) 5/7/26 0600 52.5   2.6 95   4 51.2   1.3 1.2   0.9 NNW | 341 2.6   1.4 0.00 0.00 53.0   2.6 52.2   2.8
Last Stop 5/7/26 0600 51.5   3.0 97   6 50.6   1.3 0.5   0.4 WNW | 287 1.8   0.9 0.00 0.00 52.1   2.6 51.4   2.9
Green Valley Vineyard 5/7/26 0600 50.8   3.2 98   7 50.3   1.2 1.4   1.4 NNE | 28 4.4   4.4 0.00 0.00 51.4   2.8 50.4   3.0
Park Royal 5/7/26 0600 51.4   2.8 98   7 51.0   0.9 - - - 0.00 0.00 52.6   2.1 51.2   3.0
Merino 5/7/26 0600 51.7   2.7 100   4 51.6   1.5 0.6   0.4 SE | 133 1.9   1.0 0.00 0.00 52.8   1.9 51.5   2.8
Green Valley (Sanchietti) 5/7/26 0600 51.8   3.1 - - - - - - - 52.7   2.6 50.4   4.3
Keefer Ranch (Green Valley) 5/7/26 0600 51.6   3.0 96   4 50.6   1.7 - - - 0.00 0.00 52.2   2.6 51.3   3.1
Graton-West (Dutton Ranch) 5/7/26 0600 52.1   2.7 100   0 52.1   2.7 0.8   0.5 NNW | 337 3.2   2.3 0.00 0.00 52.7   2.5 51.5   3.0
Graton-South (Mill Station Rd) 5/7/26 0600 51.4   2.7 98   6 51.0   1.2 0.0   0.0 N | 0 0.0   0.0 0.00 0.00 51.8   2.7 50.7   3.1
Occidental (Horseshoe Bend) 5/7/26 0600 49.7   2.4 100   4 49.7   1.4 - - - 0.00 0.00 50.0   2.2 49.2   2.2
Sexton Valley (Jacqueline's Blk) 5/7/26 0600 51.5   2.8 98   4 50.9   1.6 1.7   1.7 WNW | 290 3.4   2.5 0.00 0.00 52.0   2.5 51.1   3.1
Sebastopol Hills (Burnside Rd) 5/7/26 0600 50.3   2.3 100   2 50.3   1.9 0.3   0.2 NNW | 330 2.1   1.2 0.00 0.00 50.6   2.1 49.6   2.7
Pleasant Hill 5/7/26 0600 50.6   2.7 97   5 49.9   1.3 0.4   0.4 NW | 309 2.3   2.3 0.00 0.00 51.2   2.3 50.3   2.9
Seaview/Fort Ross (Hirsch) 5/7/26 0600 48.1   1.0 97   0 47.3   1.0 1.8   0.5 SE | 124 3.0   0.4 0.00 0.00 56.5   5.5 47.2   1.8
Max     52.6 100 52.1 2.3 - 5.2 0.00 0.00 56.5 52.5
Avg     51.6 93 46.7 1.1 - 2.8 0.00 - - -
Min     48.1 0 -66.8 0.0 - 0.0 0.00 0.00 50.0 47.2

Southern Sonoma County Latest

20 Stations

15 Minute Data
as of 5/7/26 6:08 AM PDT
Station Date Time Temp (°F) RH (%) Dew Pt (°F) Wind Spd (mph) Wind Dir (°) Wind Gust (mph) Latest Rain (In) Daily Rain (In) Daily Min Temp (°F) Daily Max Temp (°F)
Upper Rincon Valley 5/7/26 0600 48.2   3.3 98   4 47.7   2.2 0.7   0.7 NE | 46 2.7   2.7 0.00 0.00 48.1   2.6 50.0   1.6
Lower Bennett Valley 5/7/26 0600 50.3   3.2 100   7 50.3   1.2 2.1   1.8 WSW | 246 5.1   3.9 0.00 0.00 50.1   3.3 51.3   2.4
Kenwood (Wildwood) 5/7/26 0600 50.5   3.4 100   7 50.5   1.3 2.1   1.4 NNE | 12 4.2   2.3 0.00 0.00 47.8   6.0 51.6   2.8
Crane Creek (Ranch 62) 5/7/26 0600 51.1   3.0 98   6 50.6   1.3 2.1   2.0 SSE | 156 5.1   4.2 0.00 0.00 50.9   3.0 52.4   2.1
Rohnert Park-West (Stony Point) 5/7/26 0600 51.7   2.7 97   4 50.9   1.7 0.2   0.2 SW | 224 3.5   3.5 0.00 0.00 51.6   2.6 53.0   1.5
Rice-Spivak Vineyard 5/7/26 0600 51.2   2.4 - - - - - - - 51.0   2.4 52.4   1.5
Cartograph Wines Base 5/7/26 0600 50.5   2.7 98   3 50.1   2.0 2.2   1.5 WSW | 244 4.6   3.0 0.00 0.00 50.4   2.6 51.9   1.5
Cartograph Wines Remote 5/7/26 0600 51.1   2.6 - - - - - - - 51.1   2.5 52.8   1.3
Penngrove (Asellus) 5/7/26 0600 51.5   2.6 95   4 50.1   1.4 2.1   1.5 SSE | 157 5.0   3.4 0.00 0.00 51.4   2.7 52.9   1.8
Sonoma Valley (Bedrock) 5/7/26 0600 50.5   3.6 95   10 49.1   0.5 - - - 0.00 0.00 48.0   5.9 51.0   3.6
Sonoma-West (Arnold) 5/7/26 0600 52.1   3.3 94   8 50.4   0.8 0.8   0.9 SW | 235 3.1   0.4 0.00 0.00 48.7   6.6 52.9   2.9
Sonoma Valley HS 5/7/26 0600 52.2   3.3 99   8 52.0   1.0 1.7   0.9 SW | 236 4.7   2.3 0.00 0.00 51.4   3.8 52.6   3.2
Sonoma East (Bundschu01) 5/7/26 0600 52.5   2.6 93   5 50.6   1.1 2.3   1.7 WNW | 297 4.4   2.6 0.00 0.00 50.9   4.2 52.9   3.1
Sonoma-SE (Napoli) 5/7/26 0600 52.5   2.8 93   7 50.5   0.8 2.2   2.2 NW | 307 4.8   4.8 0.00 0.00 51.5   3.5 53.0   2.9
Schellville (Sasaki) 2/7/26 1900 53.4   2.2 88   10 49.9   1.0 3.3   1.8 SW | 225 5.8   4.0 0.00 0.00 47.0   0.8 62.8   8.4
Petaluma (Ranch 10) 5/7/26 0600 52.3   2.5 92   4 49.9   1.4 3.6   1.2 W | 273 6.6   2.3 0.00 0.00 52.2   2.5 53.9   1.3
Carneros (Ranch 71) 5/7/26 0600 51.2   2.8 96   7 50.3   0.8 3.8   1.7 W | 270 6.4   2.1 0.00 0.00 50.9   2.9 51.8   2.6
Ricci Vineyards (Carneros) 5/7/26 0600 52.0   2.7 93   6 50.2   1.0 4.9   1.2 W | 278 7.5   1.3 0.00 0.00 51.4   3.3 52.5   2.6
Carneros Upper (Ranch 81) 5/7/26 0600 51.2   2.8 1   89 -55.4   106.4 3.0   0.4 W | 274 6.0   1.6 - - 50.9   3.1 51.7   2.6
Carneros Lower (Ranch 81) 5/7/26 0600 52.4   2.5 100   11 52.4   0.8 0.3   0.1 NW | 319 2.0   0.1 0.00 0.00 51.1   3.7 52.7   2.4
Max     52.5 100 52.4 4.9 - 7.5 0.00 0.00 52.2 53.9
Avg     51.3 91 44.1 2.1 - 4.7 0.00 - - -
Min     48.2 1 -55.4 0.2 - 2.0 0.00 0.00 47.8 50.0

AQI Map

Map

Hourly Data